createdAt,value
2019-03-28T00:02:28.368Z,99.90
2019-03-28T00:04:59.102Z,99.90
2019-03-28T00:07:29.817Z,99.90
2019-03-28T00:10:00.601Z,99.90
2019-03-28T00:12:31.360Z,99.90
2019-03-28T00:15:02.181Z,99.90
2019-03-28T00:17:33.068Z,99.90
2019-03-28T00:20:04.407Z,99.90
2019-03-28T00:22:49.491Z,99.90
2019-03-28T00:25:20.269Z,99.90
2019-03-28T00:27:51.085Z,99.90
2019-03-28T00:30:22.450Z,99.90
2019-03-28T00:32:53.347Z,99.90
2019-03-28T00:35:24.087Z,99.90
2019-03-28T00:37:54.961Z,99.90
2019-03-28T00:40:25.619Z,99.90
2019-03-28T00:42:56.354Z,99.90
2019-03-28T00:45:27.113Z,99.90
2019-03-28T00:47:57.888Z,99.90
2019-03-28T00:50:28.526Z,99.90
2019-03-28T00:52:59.422Z,99.90
2019-03-28T00:55:30.159Z,99.90
2019-03-28T00:58:00.870Z,99.90
2019-03-28T01:00:31.776Z,99.90
2019-03-28T01:03:02.561Z,99.90
2019-03-28T01:05:33.389Z,99.90
2019-03-28T01:08:04.123Z,99.90
2019-03-28T01:10:34.881Z,99.90
2019-03-28T01:13:05.576Z,99.90
2019-03-28T01:15:36.381Z,99.90
2019-03-28T01:18:07.069Z,99.90
2019-03-28T01:20:37.653Z,99.90
2019-03-28T01:23:08.342Z,99.90
2019-03-28T01:25:39.043Z,99.90
2019-03-28T01:28:09.638Z,99.90
2019-03-28T01:30:40.348Z,99.90
2019-03-28T01:33:11.087Z,99.90
2019-03-28T01:35:41.914Z,99.90
2019-03-28T01:38:12.716Z,99.90
2019-03-28T01:40:43.477Z,99.90
2019-03-28T01:43:14.285Z,99.90
2019-03-28T01:45:45.049Z,99.90
2019-03-28T01:48:15.810Z,99.90
2019-03-28T01:50:46.567Z,99.90
2019-03-28T01:53:17.260Z,99.90
2019-03-28T01:55:48.040Z,99.90
2019-03-28T01:58:19.370Z,99.90
2019-03-28T02:00:50.250Z,99.90
2019-03-28T02:03:21.013Z,99.90
2019-03-28T02:05:51.842Z,99.90
2019-03-28T02:08:24.881Z,99.90
2019-03-28T02:10:55.146Z,99.90
2019-03-28T02:13:25.983Z,99.90
2019-03-28T02:15:56.766Z,99.90
2019-03-28T02:18:27.528Z,99.90
2019-03-28T02:20:58.306Z,99.90
2019-03-28T02:23:28.974Z,99.90
2019-03-28T02:25:59.621Z,99.90
2019-03-28T02:28:30.305Z,99.90
2019-03-28T02:31:01.001Z,99.90
2019-03-28T02:33:31.750Z,99.90
2019-03-28T02:36:02.662Z,99.90
2019-03-28T02:38:33.433Z,99.90
2019-03-28T02:41:04.263Z,99.90
2019-03-28T02:43:35.083Z,99.90
2019-03-28T02:46:05.882Z,99.90
2019-03-28T02:48:36.610Z,99.90
2019-03-28T02:51:07.404Z,99.90
2019-03-28T02:53:38.180Z,99.90
2019-03-28T02:56:09.032Z,99.90
2019-03-28T02:58:39.825Z,99.90
2019-03-28T03:01:10.501Z,99.90
2019-03-28T03:03:41.117Z,99.90
2019-03-28T03:06:11.798Z,99.90
2019-03-28T03:08:42.634Z,99.90
2019-03-28T03:11:13.454Z,99.90
2019-03-28T03:13:44.315Z,99.90
2019-03-28T03:16:16.474Z,99.90
2019-03-28T03:18:47.339Z,99.90
2019-03-28T03:21:18.083Z,99.90
2019-03-28T03:23:49.045Z,99.90
2019-03-28T03:26:19.829Z,99.90
2019-03-28T03:28:50.651Z,99.90
2019-03-28T03:31:22.210Z,99.90
2019-03-28T03:33:53.360Z,99.90
2019-03-28T03:36:24.055Z,99.90
2019-03-28T03:38:54.646Z,99.90
2019-03-28T03:41:25.364Z,99.90
2019-03-28T03:43:56.032Z,99.90
2019-03-28T03:46:27.493Z,99.90
2019-03-28T03:48:58.832Z,99.90
2019-03-28T03:51:29.572Z,99.90
2019-03-28T03:54:00.275Z,99.90
2019-03-28T03:56:31.136Z,99.90
2019-03-28T03:59:02.585Z,99.90
2019-03-28T04:01:33.430Z,99.90
2019-03-28T04:04:04.226Z,99.90
2019-03-28T04:06:35.011Z,99.90
2019-03-28T04:09:06.678Z,99.90
2019-03-28T04:11:40.207Z,99.90
2019-03-28T04:14:11.046Z,99.90
2019-03-28T04:16:41.890Z,99.90
2019-03-28T04:19:12.670Z,99.90
2019-03-28T04:21:43.738Z,99.90
2019-03-28T04:24:14.838Z,99.90
2019-03-28T04:26:45.613Z,99.90
2019-03-28T04:29:19.629Z,99.90
2019-03-28T04:31:50.584Z,99.90
2019-03-28T04:34:21.387Z,99.90
2019-03-28T04:36:52.381Z,99.90
2019-03-28T04:39:23.333Z,99.90
2019-03-28T04:41:54.019Z,99.90
2019-03-28T04:44:24.829Z,99.90
2019-03-28T04:46:55.716Z,99.90
2019-03-28T04:49:26.536Z,99.90
2019-03-28T04:51:57.309Z,99.90
2019-03-28T04:54:28.077Z,99.90
2019-03-28T04:56:59.018Z,99.90
2019-03-28T04:59:30.018Z,99.90
2019-03-28T05:02:03.498Z,99.90
2019-03-28T05:04:33.186Z,99.90
2019-03-28T05:07:04.075Z,99.90
2019-03-28T05:09:35.499Z,99.90
2019-03-28T05:12:06.397Z,99.90
2019-03-28T05:14:37.161Z,99.90
2019-03-28T05:17:08.327Z,99.90
2019-03-28T05:19:39.080Z,99.90
2019-03-28T05:22:09.894Z,99.90
2019-03-28T05:24:40.653Z,99.90
2019-03-28T05:27:11.578Z,99.90
2019-03-28T05:29:42.398Z,99.90
2019-03-28T05:32:13.265Z,99.90
2019-03-28T05:34:44.018Z,99.90
2019-03-28T05:37:14.772Z,99.90
2019-03-28T05:39:45.700Z,99.90
2019-03-28T05:42:16.544Z,99.90
2019-03-28T05:44:47.404Z,99.90
2019-03-28T05:47:18.133Z,99.90
2019-03-28T05:49:49.630Z,99.90
2019-03-28T05:52:20.673Z,99.90
2019-03-28T05:54:52.014Z,99.90
2019-03-28T05:57:25.106Z,99.90
2019-03-28T05:59:56.292Z,99.90
2019-03-28T06:02:27.139Z,99.90
2019-03-28T06:04:57.833Z,99.90
2019-03-28T06:07:28.661Z,99.90
2019-03-28T06:09:59.584Z,99.90
2019-03-28T06:12:30.481Z,99.90
2019-03-28T06:15:04.070Z,99.90
2019-03-28T06:17:35.770Z,99.90
2019-03-28T06:20:07.197Z,99.90
2019-03-28T06:22:37.932Z,99.90
2019-03-28T06:25:09.624Z,99.90
2019-03-28T06:27:40.998Z,99.90
2019-03-28T06:30:11.846Z,99.90
2019-03-28T06:32:43.573Z,99.90
2019-03-28T06:35:14.654Z,99.90
2019-03-28T06:37:45.606Z,99.90
2019-03-28T06:40:16.396Z,99.90
2019-03-28T06:42:50.183Z,99.90
2019-03-28T06:45:21.097Z,99.90
2019-03-28T06:47:51.869Z,99.90
2019-03-28T06:50:22.722Z,99.90
2019-03-28T06:52:53.514Z,99.90
2019-03-28T06:55:25.050Z,99.90
2019-03-28T06:57:56.601Z,99.90
2019-03-28T07:00:27.389Z,99.90
2019-03-28T07:02:58.246Z,99.90
2019-03-28T07:05:29.098Z,99.90
2019-03-28T07:07:59.870Z,99.90
2019-03-28T07:10:30.555Z,99.90
2019-03-28T07:13:01.329Z,99.90
2019-03-28T07:15:32.077Z,99.90
2019-03-28T07:18:02.653Z,99.90
2019-03-28T07:20:33.400Z,99.90
2019-03-28T07:23:04.199Z,99.90
2019-03-28T07:25:34.870Z,99.90
2019-03-28T07:28:06.500Z,99.90
2019-03-28T07:30:37.601Z,99.90
2019-03-28T07:33:08.277Z,99.90
2019-03-28T07:35:38.948Z,99.90
2019-03-28T07:38:09.820Z,99.90
2019-03-28T07:40:40.493Z,99.90
2019-03-28T07:43:13.779Z,99.90
2019-03-28T07:45:44.725Z,99.90
2019-03-28T07:48:15.346Z,99.90
2019-03-28T07:50:46.365Z,99.90
2019-03-28T07:53:19.686Z,99.90
2019-03-28T07:55:49.699Z,99.90
2019-03-28T07:58:20.442Z,99.90
2019-03-28T08:00:51.217Z,99.90
2019-03-28T08:03:22.042Z,99.90
2019-03-28T08:05:52.725Z,99.90
2019-03-28T08:08:23.353Z,99.90
2019-03-28T08:10:54.158Z,99.90
2019-03-28T08:13:25.087Z,99.90
2019-03-28T08:15:55.875Z,99.90
2019-03-28T08:18:26.650Z,99.90
2019-03-28T08:20:57.353Z,99.90
2019-03-28T08:23:28.052Z,99.90
2019-03-28T08:25:58.749Z,99.90
2019-03-28T08:28:29.570Z,99.90
2019-03-28T08:31:00.409Z,99.90
2019-03-28T08:33:32.447Z,99.90
2019-03-28T08:36:04.272Z,99.90
2019-03-28T08:38:37.696Z,99.90
2019-03-28T08:41:08.407Z,99.90
2019-03-28T08:43:39.150Z,99.90
2019-03-28T08:46:09.931Z,99.90
2019-03-28T08:48:40.719Z,99.90
2019-03-28T08:51:11.437Z,99.90
2019-03-28T08:53:42.238Z,99.10
2019-03-28T08:56:13.025Z,99.90
2019-03-28T08:58:43.739Z,99.90
2019-03-28T09:01:14.448Z,98.00
2019-03-28T09:03:45.054Z,98.30
2019-03-28T09:06:17.091Z,97.70
2019-03-28T09:08:48.242Z,96.00
2019-03-28T09:11:21.452Z,96.30
2019-03-28T09:13:51.543Z,96.70
2019-03-28T09:16:22.269Z,96.40
2019-03-28T09:18:53.012Z,95.70
2019-03-28T09:21:23.675Z,92.40
2019-03-28T09:23:54.487Z,92.90
2019-03-28T09:26:29.059Z,94.40
2019-03-28T09:28:59.882Z,93.40
2019-03-28T09:31:30.917Z,92.20
2019-03-28T09:34:06.674Z,92.30
2019-03-28T09:36:40.271Z,87.10
2019-03-28T09:39:14.150Z,88.40
2019-03-28T09:41:45.381Z,89.80
2019-03-28T09:44:20.825Z,87.70
2019-03-28T09:46:52.186Z,84.30
2019-03-28T09:49:23.568Z,84.70
2019-03-28T09:51:54.592Z,82.20
2019-03-28T09:54:25.952Z,79.60
2019-03-28T09:56:57.067Z,81.40
2019-03-28T09:59:30.413Z,80.60
2019-03-28T10:02:01.410Z,80.00
2019-03-28T10:04:32.720Z,80.00
2019-03-28T10:07:03.443Z,79.60
2019-03-28T10:09:34.394Z,79.50
2019-03-28T10:12:05.214Z,75.60
2019-03-28T10:14:36.526Z,78.70
2019-03-28T10:17:07.405Z,74.50
2019-03-28T10:19:38.197Z,74.80
2019-03-28T10:22:08.978Z,71.50
2019-03-28T10:24:39.772Z,72.90
2019-03-28T10:27:10.564Z,71.60
2019-03-28T10:29:41.304Z,72.00
2019-03-28T10:32:12.073Z,70.70
2019-03-28T10:34:42.860Z,69.80
2019-03-28T10:37:13.728Z,70.00
2019-03-28T10:39:44.478Z,69.20
2019-03-28T10:42:15.379Z,67.20
2019-03-28T10:44:46.408Z,73.70
2019-03-28T10:47:17.304Z,69.00
2019-03-28T10:49:48.191Z,72.10
2019-03-28T10:52:18.923Z,71.70
2019-03-28T10:54:50.510Z,68.10
2019-03-28T10:57:29.861Z,66.40
2019-03-28T10:59:53.814Z,66.70
2019-03-28T11:02:24.599Z,65.50
2019-03-28T11:04:55.338Z,67.40
2019-03-28T11:07:26.138Z,69.60
2019-03-28T11:09:56.955Z,68.50
2019-03-28T11:12:27.688Z,64.90
2019-03-28T11:14:58.576Z,65.00
2019-03-28T11:17:29.357Z,62.10
2019-03-28T11:20:00.301Z,62.20
2019-03-28T11:22:31.118Z,63.70
2019-03-28T11:25:01.933Z,60.50
2019-03-28T11:27:32.745Z,63.50
2019-03-28T11:30:03.701Z,62.30
2019-03-28T11:32:35.913Z,59.70
2019-03-28T11:35:07.425Z,61.20
2019-03-28T11:37:39.280Z,59.30
2019-03-28T11:40:11.419Z,59.40
2019-03-28T11:42:42.462Z,58.40
2019-03-28T11:45:17.412Z,56.90
2019-03-28T11:47:48.641Z,55.80
2019-03-28T11:50:19.453Z,55.20
2019-03-28T11:52:50.293Z,55.80
2019-03-28T11:55:20.980Z,54.70
2019-03-28T11:57:51.908Z,53.50
2019-03-28T12:00:22.831Z,51.60
2019-03-28T12:02:53.603Z,51.80
2019-03-28T12:05:24.426Z,53.70
2019-03-28T12:07:55.249Z,53.80
2019-03-28T12:10:26.193Z,51.60
2019-03-28T12:12:57.097Z,51.40
2019-03-28T12:15:27.809Z,52.00
2019-03-28T12:17:58.733Z,48.70
2019-03-28T12:20:29.554Z,50.60
2019-03-28T12:23:00.415Z,49.20
2019-03-28T12:25:31.192Z,47.90
2019-03-28T12:28:02.018Z,47.10
2019-03-28T12:30:32.749Z,47.50
2019-03-28T12:33:03.482Z,45.50
2019-03-28T12:35:34.242Z,47.70
2019-03-28T12:38:05.008Z,49.70
2019-03-28T12:40:35.810Z,48.60
2019-03-28T12:43:06.518Z,49.40
2019-03-28T12:45:37.294Z,45.60
2019-03-28T12:48:07.974Z,47.30
2019-03-28T12:50:38.623Z,46.80
2019-03-28T12:53:09.452Z,46.20
2019-03-28T12:55:40.126Z,46.80
2019-03-28T12:58:10.958Z,49.10
2019-03-28T13:00:41.877Z,49.90
2019-03-28T13:03:12.632Z,48.80
2019-03-28T13:05:43.362Z,49.60
2019-03-28T13:08:14.198Z,50.20
2019-03-28T13:10:44.990Z,49.50
2019-03-28T13:13:15.719Z,52.80
2019-03-28T13:15:46.761Z,49.60
2019-03-28T13:18:17.546Z,52.40
2019-03-28T13:20:48.303Z,48.80
2019-03-28T13:23:19.171Z,48.60
2019-03-28T13:25:50.149Z,49.00
2019-03-28T13:28:20.961Z,47.30
2019-03-28T13:30:53.642Z,41.80
2019-03-28T13:33:25.166Z,40.10
2019-03-28T13:35:56.126Z,42.20
2019-03-28T13:38:26.946Z,41.70
2019-03-28T13:40:57.690Z,39.10
2019-03-28T13:43:28.421Z,39.00
2019-03-28T13:45:59.111Z,41.30
2019-03-28T13:48:29.890Z,39.70
2019-03-28T13:51:00.513Z,38.80
2019-03-28T13:53:39.260Z,38.00
2019-03-28T13:56:03.938Z,36.90
2019-03-28T13:58:34.876Z,36.70
2019-03-28T14:01:08.203Z,36.40
2019-03-28T14:03:41.112Z,36.60
2019-03-28T14:06:12.456Z,35.90
2019-03-28T14:08:43.242Z,35.80
2019-03-28T14:11:13.998Z,35.50
2019-03-28T14:13:44.775Z,37.10
2019-03-28T14:16:15.565Z,35.90
2019-03-28T14:18:46.429Z,36.90
2019-03-28T14:21:17.146Z,36.70
2019-03-28T14:23:48.095Z,36.90
2019-03-28T14:26:19.176Z,35.40
2019-03-28T14:28:50.440Z,35.50
2019-03-28T14:31:21.268Z,35.00
2019-03-28T14:33:51.954Z,35.10
2019-03-28T14:36:25.140Z,35.50
2019-03-28T14:38:55.504Z,35.70
2019-03-28T14:41:26.334Z,34.80
2019-03-28T14:43:57.074Z,34.60
2019-03-28T14:46:27.969Z,34.50
2019-03-28T14:48:58.889Z,35.10
2019-03-28T14:51:29.696Z,35.80
2019-03-28T14:54:00.389Z,35.40
2019-03-28T14:56:31.249Z,35.10
2019-03-28T14:59:03.922Z,36.20
2019-03-28T15:01:34.801Z,34.90
2019-03-28T15:04:05.518Z,35.10
2019-03-28T15:06:36.310Z,37.10
2019-03-28T15:09:09.791Z,35.50
2019-03-28T15:11:40.858Z,35.50
2019-03-28T15:14:11.623Z,35.70
2019-03-28T15:16:42.282Z,36.00
2019-03-28T15:19:13.286Z,34.50
2019-03-28T15:21:43.920Z,35.80
2019-03-28T15:24:15.732Z,36.10
2019-03-28T15:26:46.883Z,36.20
2019-03-28T15:29:17.692Z,35.00
2019-03-28T15:31:48.593Z,35.40
2019-03-28T15:34:19.368Z,35.40
2019-03-28T15:36:50.151Z,35.40
2019-03-28T15:39:21.028Z,35.90
2019-03-28T15:41:51.828Z,35.60
2019-03-28T15:44:22.533Z,35.40
2019-03-28T15:46:53.643Z,35.30
2019-03-28T15:49:24.447Z,34.80
2019-03-28T15:51:55.054Z,35.20
2019-03-28T15:54:25.774Z,34.40
2019-03-28T15:56:58.648Z,34.70
2019-03-28T15:59:28.762Z,34.80
2019-03-28T16:02:00.035Z,34.50
2019-03-28T16:04:30.869Z,34.10
2019-03-28T16:07:01.682Z,34.30
2019-03-28T16:09:32.525Z,33.10
2019-03-28T16:12:03.367Z,34.40
2019-03-28T16:14:34.066Z,33.40
2019-03-28T16:17:04.945Z,34.10
2019-03-28T16:19:35.783Z,34.60
2019-03-28T16:22:06.558Z,34.90
2019-03-28T16:24:37.374Z,35.40
2019-03-28T16:27:08.149Z,35.50
2019-03-28T16:29:38.946Z,35.60
2019-03-28T16:32:09.667Z,35.20
2019-03-28T16:34:43.374Z,35.30
2019-03-28T16:37:12.963Z,34.70
2019-03-28T16:39:43.749Z,34.80
2019-03-28T16:42:15.746Z,35.70
2019-03-28T16:44:46.657Z,36.50
2019-03-28T16:47:17.472Z,38.40
2019-03-28T16:49:48.170Z,38.30
2019-03-28T16:52:18.828Z,38.50
2019-03-28T16:54:49.585Z,38.20
2019-03-28T16:57:20.260Z,38.80
2019-03-28T16:59:51.007Z,39.20
2019-03-28T17:02:21.565Z,40.50
2019-03-28T17:04:52.143Z,40.90
2019-03-28T17:07:25.631Z,42.40
2019-03-28T17:09:57.013Z,42.80
2019-03-28T17:12:27.503Z,42.90
2019-03-28T17:14:57.927Z,42.60
2019-03-28T17:17:28.322Z,42.50
2019-03-28T17:19:59.250Z,42.60
2019-03-28T17:22:29.951Z,43.00
2019-03-28T17:25:00.721Z,43.50
2019-03-28T17:27:31.517Z,43.50
2019-03-28T17:30:02.367Z,44.40
2019-03-28T17:32:36.427Z,44.80
2019-03-28T17:35:05.415Z,46.50
2019-03-28T17:37:36.253Z,49.30
2019-03-28T17:40:06.966Z,50.00
2019-03-28T17:42:37.415Z,52.10
2019-03-28T17:45:08.507Z,56.40
2019-03-28T17:47:39.274Z,58.50
2019-03-28T17:50:10.349Z,59.00
2019-03-28T17:52:41.199Z,59.50
2019-03-28T17:55:11.939Z,61.40
2019-03-28T17:57:42.422Z,62.70
2019-03-28T18:00:14.029Z,65.60
2019-03-28T18:02:44.921Z,66.50
2019-03-28T18:05:16.050Z,67.90
2019-03-28T18:07:47.039Z,70.30
2019-03-28T18:10:20.412Z,70.20
2019-03-28T18:12:52.063Z,75.70
2019-03-28T18:15:22.964Z,76.10
2019-03-28T18:17:55.811Z,77.50
2019-03-28T18:20:32.685Z,78.90
2019-03-28T18:23:03.990Z,79.40
2019-03-28T18:25:34.525Z,81.40
2019-03-28T18:28:05.216Z,83.70
2019-03-28T18:30:37.445Z,86.00
2019-03-28T18:33:08.085Z,87.50
2019-03-28T18:35:38.519Z,89.60
2019-03-28T18:38:09.147Z,90.10
2019-03-28T18:40:39.623Z,90.80
2019-03-28T18:43:10.028Z,91.80
2019-03-28T18:45:40.787Z,93.00
2019-03-28T18:48:11.609Z,94.90
2019-03-28T18:50:42.325Z,95.20
2019-03-28T18:53:13.612Z,94.90
2019-03-28T18:55:47.467Z,96.00
2019-03-28T18:58:47.458Z,96.20
2019-03-28T19:01:25.415Z,96.80
2019-03-28T19:03:56.367Z,97.60
2019-03-28T19:06:27.056Z,97.50
2019-03-28T19:08:59.713Z,97.70
2019-03-28T19:11:30.545Z,97.20
2019-03-28T19:14:03.071Z,97.90
2019-03-28T19:16:40.625Z,97.70
2019-03-28T19:19:12.740Z,98.50
2019-03-28T19:21:46.637Z,98.60
2019-03-28T19:24:22.029Z,99.20
2019-03-28T19:27:06.931Z,99.90
2019-03-28T19:29:46.596Z,99.90
2019-03-28T19:32:37.457Z,99.90
2019-03-28T19:35:14.884Z,99.90
2019-03-28T19:37:58.295Z,99.90
2019-03-28T19:40:38.219Z,99.90
2019-03-28T19:43:23.328Z,99.90
2019-03-28T19:46:01.365Z,99.90
2019-03-28T19:48:41.439Z,99.90
2019-03-28T19:51:22.789Z,99.90
2019-03-28T19:53:59.870Z,99.90
2019-03-28T19:56:39.251Z,99.90
2019-03-28T19:59:14.972Z,99.90
2019-03-28T20:01:58.454Z,99.90
2019-03-28T20:04:49.289Z,99.90
2019-03-28T20:07:24.127Z,99.90
2019-03-28T20:10:15.771Z,99.90
2019-03-28T20:12:45.600Z,99.90
2019-03-28T20:15:26.893Z,99.90
2019-03-28T20:18:07.430Z,99.90
2019-03-28T20:20:45.507Z,99.90
2019-03-28T20:23:28.245Z,99.90
2019-03-28T20:26:10.821Z,99.90
2019-03-28T20:28:45.842Z,99.90
2019-03-28T20:31:29.711Z,99.90
2019-03-28T20:34:12.691Z,99.90
2019-03-28T20:36:52.661Z,99.90
2019-03-28T20:39:32.945Z,99.90
2019-03-28T20:42:14.088Z,99.90
2019-03-28T20:44:51.252Z,99.90
2019-03-28T20:47:34.418Z,99.90
2019-03-28T20:50:14.001Z,99.90
2019-03-28T20:53:04.367Z,99.90
2019-03-28T20:55:38.625Z,99.90
2019-03-28T20:58:22.956Z,99.90
2019-03-28T21:01:06.596Z,99.90
2019-03-28T21:03:55.210Z,99.90
2019-03-28T21:06:31.302Z,99.90
2019-03-28T21:09:06.982Z,99.90
2019-03-28T21:11:48.903Z,99.90
2019-03-28T21:14:25.840Z,99.90
2019-03-28T21:17:06.132Z,99.90
2019-03-28T21:19:45.053Z,99.90
2019-03-28T21:22:15.896Z,99.90
2019-03-28T21:24:54.140Z,99.90
2019-03-28T21:27:37.263Z,99.90
2019-03-28T21:30:18.476Z,99.90
2019-03-28T21:32:55.977Z,99.90
2019-03-28T21:35:33.562Z,99.90
2019-03-28T21:38:15.366Z,99.90
2019-03-28T21:41:16.432Z,99.90
2019-03-28T21:43:59.487Z,99.90
2019-03-28T21:46:38.576Z,99.90
2019-03-28T21:49:36.792Z,99.90
2019-03-28T21:52:16.428Z,99.90
2019-03-28T21:54:51.839Z,99.90
2019-03-28T21:57:22.709Z,99.90
2019-03-28T21:59:54.295Z,99.90
2019-03-28T22:02:25.093Z,99.90
2019-03-28T22:04:56.070Z,99.90
2019-03-28T22:07:26.808Z,99.90
2019-03-28T22:09:57.544Z,99.90
2019-03-28T22:12:28.298Z,99.90
2019-03-28T22:14:59.014Z,99.90
2019-03-28T22:17:29.727Z,99.90
2019-03-28T22:20:00.517Z,99.90
2019-03-28T22:22:31.337Z,99.90
2019-03-28T22:25:02.153Z,99.90
2019-03-28T22:27:32.954Z,99.90
2019-03-28T22:30:04.022Z,99.90
2019-03-28T22:32:34.749Z,99.90
2019-03-28T22:35:06.153Z,99.90
2019-03-28T22:37:36.922Z,99.90
2019-03-28T22:40:11.916Z,99.90
2019-03-28T22:42:41.786Z,99.90
2019-03-28T22:45:14.754Z,99.90
2019-03-28T22:47:45.709Z,99.90
2019-03-28T22:50:16.748Z,99.90
2019-03-28T22:52:47.529Z,99.90
2019-03-28T22:55:18.391Z,99.90
2019-03-28T22:57:49.256Z,99.90
2019-03-28T23:00:21.360Z,99.90
2019-03-28T23:02:52.071Z,99.90
2019-03-28T23:05:22.863Z,99.90
2019-03-28T23:07:53.662Z,99.90
2019-03-28T23:10:24.351Z,99.90
2019-03-28T23:12:54.826Z,99.90
2019-03-28T23:15:25.618Z,99.90
2019-03-28T23:17:56.356Z,99.90
2019-03-28T23:20:27.077Z,99.90
2019-03-28T23:22:57.865Z,99.90
2019-03-28T23:25:28.518Z,99.90
2019-03-28T23:27:59.155Z,99.90
2019-03-28T23:30:30.020Z,99.90
2019-03-28T23:33:00.637Z,99.90
2019-03-28T23:35:31.362Z,99.90
2019-03-28T23:38:02.158Z,99.90
2019-03-28T23:40:32.833Z,99.90
2019-03-28T23:43:03.251Z,99.90
2019-03-28T23:45:34.005Z,99.90
2019-03-28T23:48:04.841Z,99.90
2019-03-28T23:50:35.543Z,99.90
2019-03-28T23:53:06.207Z,99.90
2019-03-28T23:55:36.859Z,99.90
2019-03-28T23:58:07.755Z,99.90
